Time;durP1;ratioP1;P1;durP2;ratioP2;P2;SDS_P1;SDS_P2;PMS_P1;PMS_P2;Temp;Humidity;BMP_temperature;BMP_pressure;BME280_temperature;BME280_humidity;BME280_pressure;Samples;Min_cycle;Max_cycle;Signal;HPM_P1;HPM_P2
2022/07/29 00:01:44;;;;;;;;;21.50;21.00;;;;;26.58;47.29;99280.97;5109408;28;8862;-79
2022/07/29 00:04:13;;;;;;;;;28.25;27.25;;;;;26.59;47.52;99286.22;5091936;28;8851;-78
2022/07/29 00:06:42;;;;;;;;;28.75;27.25;;;;;26.56;47.75;99281.06;5111163;28;8835;-81
2022/07/29 00:09:11;;;;;;;;;26.50;26.50;;;;;26.54;47.77;99291.00;5111644;28;8851;-80
2022/07/29 00:11:41;;;;;;;;;25.75;25.00;;;;;26.54;47.63;99285.66;5060192;28;8824;-77
2022/07/29 00:14:10;;;;;;;;;29.75;27.25;;;;;26.55;47.78;99278.50;5054915;28;8901;-76
2022/07/29 00:16:39;;;;;;;;;31.00;28.00;;;;;26.56;48.15;99282.84;5049978;27;8846;-76
2022/07/29 00:19:08;;;;;;;;;27.00;26.50;;;;;26.52;47.87;99284.03;5112852;27;8875;-77
2022/07/29 00:21:38;;;;;;;;;26.50;25.00;;;;;26.51;48.11;99290.38;5131554;27;8845;-79
2022/07/29 00:24:07;;;;;;;;;23.75;23.50;;;;;26.49;47.78;99281.59;5115251;27;8841;-76
2022/07/29 00:26:35;;;;;;;;;29.50;27.00;;;;;26.47;47.89;99283.53;5084116;27;8849;-78
2022/07/29 00:29:05;;;;;;;;;27.25;24.75;;;;;26.44;47.79;99271.22;5111705;27;8857;-78
2022/07/29 00:31:54;;;;;;;;;25.75;24.25;;;;;26.41;48.29;99272.31;5129904;27;8871;-78
2022/07/29 00:37:09;;;;;;;;;26.75;26.00;;;;;26.39;48.61;99265.34;5150289;27;8847;-77
2022/07/29 00:39:37;;;;;;;;;25.00;25.00;;;;;26.33;48.76;99269.28;5125814;27;8961;-79
2022/07/29 00:42:07;;;;;;;;;25.25;24.50;;;;;26.30;49.23;99272.19;5128430;27;8846;-77
2022/07/29 00:44:42;;;;;;;;;25.75;24.50;;;;;26.24;50.38;99261.94;5129175;27;8838;-77
2022/07/29 00:47:11;;;;;;;;;30.50;27.00;;;;;26.23;51.10;99266.41;5128755;27;8967;-78
2022/07/29 00:49:41;;;;;;;;;26.25;25.50;;;;;26.20;51.22;99263.97;5094686;27;8961;-80
2022/07/29 00:52:11;;;;;;;;;25.00;25.00;;;;;26.17;51.53;99252.63;5111902;27;8853;-78
2022/07/29 00:54:44;;;;;;;;;26.75;25.00;;;;;26.17;51.38;99258.84;5111959;27;9629;-78
2022/07/29 00:57:13;;;;;;;;;23.50;23.00;;;;;26.16;51.46;99254.47;5130048;27;8853;-77
2022/07/29 00:59:43;;;;;;;;;25.25;24.50;;;;;26.18;51.58;99257.00;5077413;27;8891;-78
2022/07/29 01:02:12;;;;;;;;;26.25;26.25;;;;;26.15;52.27;99251.91;5129397;27;9607;-77
2022/07/29 01:04:41;;;;;;;;;24.25;23.50;;;;;26.13;52.41;99253.81;5082206;27;8850;-76
2022/07/29 01:07:10;;;;;;;;;27.00;25.00;;;;;26.13;52.41;99251.16;5126846;27;8858;-76
2022/07/29 01:09:40;;;;;;;;;25.50;25.50;;;;;26.12;52.07;99249.41;5131968;27;8823;-76
2022/07/29 01:12:16;;;;;;;;;27.50;25.50;;;;;26.12;52.19;99246.75;5131720;27;8835;-79
2022/07/29 01:14:48;;;;;;;;;25.50;24.50;;;;;26.13;52.43;99248.47;5150488;27;8844;-77
2022/07/29 01:17:22;;;;;;;;;28.25;27.50;;;;;26.15;52.12;99238.53;5130812;27;8851;-78
2022/07/29 01:19:58;;;;;;;;;26.75;25.75;;;;;26.13;51.92;99240.47;5150883;27;8820;-78
2022/07/29 01:22:34;;;;;;;;;17.25;16.50;;;;;26.11;52.19;99235.22;5150615;27;8835;-76
2022/07/29 01:25:46;;;;;;;;;25.00;24.50;;;;;26.15;51.56;99230.50;5114904;27;8843;-78
2022/07/29 01:29:01;;;;;;;;;26.75;26.00;;;;;26.15;51.58;99231.34;5049128;28;8848;-78
2022/07/29 01:31:43;;;;;;;;;28.00;26.00;;;;;26.11;51.97;99231.69;5008524;28;8886;-78
2022/07/29 01:34:35;;;;;;;;;27.75;27.00;;;;;26.10;52.25;99228.16;5006720;28;8867;-78
2022/07/29 01:37:12;;;;;;;;;29.75;27.25;;;;;26.08;52.24;99227.41;4978772;28;8836;-77
2022/07/29 01:39:44;;;;;;;;;23.00;22.75;;;;;26.06;51.53;99230.16;5025672;28;8966;-78
2022/07/29 01:42:21;;;;;;;;;21.50;21.25;;;;;26.06;50.95;99230.16;5009894;28;8868;-78
2022/07/29 01:45:01;;;;;;;;;23.50;23.00;;;;;26.05;50.49;99224.97;5007970;28;8977;-77
2022/07/29 01:47:38;;;;;;;;;28.25;27.25;;;;;26.06;50.81;99230.16;5006070;28;8850;-77
2022/07/29 01:50:11;;;;;;;;;25.75;25.25;;;;;26.05;50.57;99231.16;5025638;28;9017;-76
2022/07/29 01:52:44;;;;;;;;;23.00;22.00;;;;;26.06;50.63;99227.50;5010394;28;8860;-79
2022/07/29 01:55:17;;;;;;;;;23.00;23.00;;;;;26.04;50.98;99229.44;5025960;28;8986;-77
2022/07/29 01:57:49;;;;;;;;;23.75;23.75;;;;;26.02;50.92;99235.84;5013049;28;8889;-77
2022/07/29 02:00:20;;;;;;;;;24.00;24.00;;;;;26.04;51.45;99233.94;5006010;28;8846;-76
2022/07/29 02:02:51;;;;;;;;;24.00;23.50;;;;;25.97;51.60;99237.97;5008937;28;8882;-77
2022/07/29 02:05:22;;;;;;;;;21.50;21.50;;;;;25.96;51.67;99231.78;5067900;28;8861;-77
2022/07/29 02:07:53;;;;;;;;;21.50;21.50;;;;;25.95;52.05;99231.88;5097634;27;8853;-77
2022/07/29 02:10:26;;;;;;;;;22.50;22.50;;;;;25.95;52.43;99230.06;5128798;27;8846;-76
2022/07/29 02:12:57;;;;;;;;;19.75;19.50;;;;;25.94;52.31;99233.72;5129200;27;8863;-76
2022/07/29 02:15:29;;;;;;;;;20.75;20.75;;;;;25.93;52.33;99229.31;5111220;27;8849;-76
2022/07/29 02:18:03;;;;;;;;;20.75;20.75;;;;;25.91;52.30;99227.69;5108457;28;8843;-75
2022/07/29 02:20:32;;;;;;;;;20.75;20.75;;;;;25.89;52.39;99225.13;5107056;28;8924;-76
2022/07/29 02:23:03;;;;;;;;;16.60;16.60;;;;;25.87;52.55;99227.88;5105803;27;8954;-74
2022/07/29 02:25:32;;;;;;;;;20.25;20.00;;;;;25.83;52.42;99220.22;5089497;28;8858;-76
2022/07/29 02:28:08;;;;;;;;;18.50;17.50;;;;;25.83;52.87;99230.91;5090055;28;8860;-76
2022/07/29 02:30:43;;;;;;;;;19.25;18.00;;;;;25.79;53.17;99224.06;5107952;28;8962;-75
2022/07/29 02:33:15;;;;;;;;;17.00;17.00;;;;;25.76;53.33;99226.94;5115459;28;8857;-75
2022/07/29 02:35:48;;;;;;;;;17.00;16.25;;;;;25.71;53.63;99219.25;5097621;28;8859;-76
2022/07/29 02:41:11;;;;;;;;;16.00;16.00;;;;;25.59;53.90;99220.91;5117869;27;8845;-76
2022/07/29 02:43:41;;;;;;;;;16.40;15.60;;;;;25.59;54.24;99228.91;5099068;28;8839;-77
2022/07/29 02:46:17;;;;;;;;;15.20;14.00;;;;;25.60;54.28;99227.13;5105503;28;8867;-76
2022/07/29 02:49:03;;;;;;;;;16.25;15.50;;;;;25.60;54.09;99225.31;5114717;27;8932;-78
2022/07/29 02:51:37;;;;;;;;;18.75;18.75;;;;;25.64;54.00;99225.97;5128601;27;8898;-76
2022/07/29 02:54:21;;;;;;;;;14.00;14.00;;;;;25.67;54.00;99217.72;5127269;27;8840;-77
2022/07/29 02:56:55;;;;;;;;;15.60;14.00;;;;;25.70;53.97;99216.66;5128688;27;9760;-78
2022/07/29 02:59:27;;;;;;;;;16.60;16.00;;;;;25.72;53.54;99215.59;5093284;27;8925;-77
2022/07/29 03:02:00;;;;;;;;;16.80;16.80;;;;;25.73;53.64;99220.00;5128512;27;8837;-77
2022/07/29 03:04:31;;;;;;;;;18.50;18.00;;;;;25.54;54.69;99223.06;5127984;27;8937;-77
2022/07/29 03:07:01;;;;;;;;;21.25;20.75;;;;;25.36;55.37;99225.13;5132056;27;8877;-75
2022/07/29 03:09:31;;;;;;;;;25.25;23.25;;;;;25.42;54.46;99226.53;5132339;27;8841;-77
2022/07/29 03:12:00;;;;;;;;;23.50;19.75;;;;;25.47;54.53;99224.44;5131793;27;8867;-76
2022/07/29 03:14:31;;;;;;;;;16.50;16.50;;;;;25.51;54.43;99228.59;5113833;27;8917;-75
2022/07/29 03:17:01;;;;;;;;;19.50;19.00;;;;;25.56;54.05;99226.47;5097225;27;8845;-78
2022/07/29 03:19:30;;;;;;;;;18.25;16.50;;;;;25.60;53.88;99227.13;5132421;27;8872;-77
2022/07/29 03:21:59;;;;;;;;;19.75;19.00;;;;;25.64;53.76;99231.31;5131625;27;8865;-77
2022/07/29 03:24:30;;;;;;;;;18.25;18.25;;;;;25.63;53.58;99232.25;5133111;27;8834;-76
2022/07/29 03:26:59;;;;;;;;;19.00;19.00;;;;;25.54;53.99;99236.41;5114011;27;8972;-77
2022/07/29 03:29:29;;;;;;;;;23.80;22.60;;;;;25.39;54.42;99227.63;5113197;27;8855;-77
2022/07/29 03:32:05;;;;;;;;;88.25;83.25;;;;;25.33;55.08;99229.81;5132270;27;8841;-78
2022/07/29 03:34:37;;;;;;;;;21.25;21.25;;;;;25.30;54.79;99233.56;5113560;27;11203;-75
2022/07/29 03:37:07;;;;;;;;;21.50;20.25;;;;;25.21;55.14;99236.81;5062941;27;8843;-76
2022/07/29 03:39:41;;;;;;;;;19.75;19.75;;;;;25.24;55.18;99236.66;5131889;27;9600;-76
2022/07/29 03:42:14;;;;;;;;;50.75;41.25;;;;;25.27;54.87;99239.97;5131667;27;8834;-76
2022/07/29 03:44:46;;;;;;;;;34.50;31.75;;;;;25.33;55.00;99240.50;5113342;27;8859;-78
2022/07/29 03:47:20;;;;;;;;;19.25;19.25;;;;;25.37;54.91;99245.56;5112857;27;10123;-77
2022/07/29 03:49:52;;;;;;;;;19.25;18.25;;;;;25.42;54.70;99245.22;5096305;27;8845;-78
2022/07/29 03:52:22;;;;;;;;;23.50;22.50;;;;;25.47;54.52;99243.13;5113426;27;8861;-77
2022/07/29 03:54:51;;;;;;;;;21.00;21.00;;;;;25.52;54.34;99248.13;5148139;27;8931;-78
2022/07/29 03:57:21;;;;;;;;;23.50;22.75;;;;;25.55;54.20;99254.13;5133753;27;8835;-78
2022/07/29 03:59:52;;;;;;;;;20.75;18.75;;;;;25.56;54.25;99250.50;5152451;27;8866;-78
2022/07/29 04:02:23;;;;;;;;;22.00;22.00;;;;;25.63;54.06;99253.59;5152594;27;8990;-76
2022/07/29 04:04:58;;;;;;;;;32.00;29.25;;;;;25.67;54.06;99255.09;5134094;27;8844;-77
2022/07/29 04:07:26;;;;;;;;;19.75;19.25;;;;;25.73;54.57;99257.38;5131773;27;8885;-77
2022/07/29 04:09:55;;;;;;;;;21.75;20.25;;;;;25.76;54.47;99254.50;5131602;27;8926;-77
2022/07/29 04:12:23;;;;;;;;;20.75;17.75;;;;;25.83;54.13;99260.28;5132208;27;8849;-76
2022/07/29 04:14:52;;;;;;;;;18.25;17.75;;;;;25.86;54.49;99262.75;5131899;27;8837;-77
2022/07/29 04:17:22;;;;;;;;;45.25;38.50;;;;;25.92;54.18;99256.13;5131730;27;8854;-78
2022/07/29 04:19:50;;;;;;;;;61.75;50.00;;;;;25.96;54.24;99263.00;5131012;27;8817;-78
2022/07/29 04:22:19;;;;;;;;;31.00;30.25;;;;;26.02;53.85;99265.25;5131356;27;8933;-76
2022/07/29 04:24:47;;;;;;;;;19.75;19.50;;;;;26.07;53.68;99257.78;5131091;27;8853;-76
2022/07/29 04:27:16;;;;;;;;;20.75;20.75;;;;;26.17;53.49;99274.03;5130936;27;8861;-77
2022/07/29 04:29:44;;;;;;;;;19.25;18.25;;;;;26.15;53.60;99273.28;5112296;27;8879;-76
2022/07/29 04:32:27;;;;;;;;;21.50;21.50;;;;;26.11;54.03;99266.44;5130802;27;8893;-76
2022/07/29 04:34:55;;;;;;;;;19.50;19.50;;;;;26.05;54.00;99275.75;5130688;27;8861;-76
2022/07/29 04:37:23;;;;;;;;;27.00;23.75;;;;;25.95;54.16;99277.31;5140945;27;8855;-77
2022/07/29 04:39:52;;;;;;;;;19.75;18.50;;;;;25.85;54.11;99283.25;5132880;27;8843;-78
2022/07/29 04:42:21;;;;;;;;;21.75;18.75;;;;;25.85;54.34;99285.91;5151134;27;8943;-79
2022/07/29 04:44:55;;;;;;;;;19.40;19.20;;;;;25.90;53.96;99277.59;5151138;27;8917;-76
2022/07/29 04:47:23;;;;;;;;;17.00;17.00;;;;;25.99;53.79;99285.03;5151683;27;8863;-77
2022/07/29 04:49:53;;;;;;;;;19.20;17.80;;;;;26.11;53.80;99282.47;5133277;27;8931;-76
2022/07/29 04:52:22;;;;;;;;;19.75;19.50;;;;;26.21;53.28;99278.19;5097324;27;8863;-79
2022/07/29 04:54:50;;;;;;;;;23.50;22.75;;;;;26.21;53.37;99275.50;5131519;27;8871;-78
2022/07/29 04:57:19;;;;;;;;;17.25;16.75;;;;;26.29;52.96;99278.50;5151322;27;8851;-77
2022/07/29 04:59:48;;;;;;;;;21.50;21.50;;;;;26.39;52.75;99274.22;5151778;27;8843;-76
2022/07/29 05:02:16;;;;;;;;;24.75;22.25;;;;;26.50;52.37;99277.94;5132859;27;8961;-76
2022/07/29 05:04:45;;;;;;;;;19.75;19.75;;;;;26.58;52.20;99276.47;5077524;27;9638;-77
2022/07/29 05:07:15;;;;;;;;;22.75;22.75;;;;;26.21;53.29;99260.31;5129923;27;8897;-80
2022/07/29 05:09:44;;;;;;;;;16.50;16.50;;;;;26.44;52.55;99269.38;5130678;27;8857;-77
2022/07/29 05:12:12;;;;;;;;;12.80;12.00;;;;;26.46;52.23;99263.94;5130266;27;8937;-78
2022/07/29 05:14:41;;;;;;;;;17.40;16.00;;;;;26.63;51.41;99271.69;5130282;27;8833;-77
2022/07/29 05:17:09;;;;;;;;;13.60;13.60;;;;;26.74;51.18;99264.69;5059798;27;8900;-76
2022/07/29 05:19:38;;;;;;;;;12.40;12.20;;;;;26.81;50.79;99268.63;5129911;27;8865;-77
2022/07/29 05:22:07;;;;;;;;;13.80;13.00;;;;;26.88;50.06;99274.38;5129330;27;8963;-78
2022/07/29 05:24:37;;;;;;;;;15.40;14.20;;;;;26.97;49.99;99281.75;5129454;27;8938;-78
2022/07/29 05:27:06;;;;;;;;;18.00;16.60;;;;;26.92;50.25;99271.38;5110948;27;8951;-77
2022/07/29 05:29:34;;;;;;;;;16.20;14.00;;;;;27.04;49.92;99275.81;5110336;27;8845;-78
2022/07/29 05:32:13;;;;;;;;;14.20;13.80;;;;;27.16;49.54;99278.56;5128539;27;9551;-76
2022/07/29 05:34:42;;;;;;;;;16.40;14.80;;;;;27.32;49.54;99281.03;5128473;27;9629;-76
2022/07/29 05:37:19;;;;;;;;;16.60;16.00;;;;;27.40;49.00;99281.28;5133628;27;8939;-77
2022/07/29 05:39:49;;;;;;;;;14.00;12.20;;;;;27.44;48.69;99289.97;5095193;27;8863;-78
2022/07/29 05:42:24;;;;;;;;;13.80;13.00;;;;;27.52;48.53;99284.88;5081726;27;8843;-77
2022/07/29 05:44:53;;;;;;;;;13.40;13.40;;;;;27.56;48.41;99284.53;5146275;27;8853;-77
2022/07/29 05:47:22;;;;;;;;;16.80;16.80;;;;;27.63;48.35;99281.38;5093555;27;8854;-75
2022/07/29 05:49:51;;;;;;;;;17.60;16.40;;;;;27.62;48.29;99280.53;5110371;27;8869;-77
2022/07/29 05:52:20;;;;;;;;;14.00;14.00;;;;;27.62;48.50;99288.59;5093479;27;9610;-80
2022/07/29 05:54:50;;;;;;;;;14.20;14.00;;;;;27.58;48.41;99287.94;5128722;27;8853;-77
2022/07/29 05:57:20;;;;;;;;;16.40;16.20;;;;;27.66;48.51;99283.84;5110015;27;8861;-77
2022/07/29 05:59:51;;;;;;;;;13.20;13.20;;;;;27.68;48.34;99285.44;5092089;27;8984;-77
2022/07/29 06:02:19;;;;;;;;;17.80;14.40;;;;;27.73;48.38;99287.75;5127740;27;8845;-77
2022/07/29 06:04:49;;;;;;;;;11.80;11.80;;;;;27.82;48.04;99279.00;5095458;27;8839;-80
2022/07/29 06:07:17;;;;;;;;;12.40;11.80;;;;;27.83;47.76;99287.88;5084554;28;8888;-77
2022/07/29 06:09:46;;;;;;;;;13.00;13.00;;;;;27.92;47.61;99287.22;5036235;28;9038;-76
2022/07/29 06:12:16;;;;;;;;;16.40;15.00;;;;;27.97;47.68;99287.72;5024914;28;8876;-77
2022/07/29 06:14:45;;;;;;;;;14.80;13.80;;;;;28.07;47.49;99286.06;4975702;28;9951;-77
2022/07/29 06:17:17;;;;;;;;;13.00;13.00;;;;;28.07;47.43;99293.22;5007929;28;8876;-76
2022/07/29 06:19:46;;;;;;;;;13.80;12.20;;;;;28.15;47.08;99298.88;5024067;28;8844;-80
2022/07/29 06:22:16;;;;;;;;;14.00;13.60;;;;;28.09;47.29;99292.16;4960433;28;8864;-77
2022/07/29 06:24:45;;;;;;;;;16.00;15.00;;;;;28.09;47.25;99286.81;5006792;28;10015;-79
2022/07/29 06:27:14;;;;;;;;;11.00;11.00;;;;;28.13;47.27;99287.41;4995558;28;8850;-77
2022/07/29 06:29:43;;;;;;;;;14.60;14.60;;;;;28.11;47.51;99292.03;5045015;28;8877;-79
2022/07/29 06:32:14;;;;;;;;;13.80;13.80;;;;;28.25;47.38;99291.81;5044036;28;8972;-78
2022/07/29 06:34:42;;;;;;;;;13.80;13.80;;;;;28.32;47.12;99287.69;5027218;28;8977;-78
2022/07/29 06:37:17;;;;;;;;;16.20;14.80;;;;;28.43;46.91;99286.84;5039953;28;8852;-79
2022/07/29 06:39:46;;;;;;;;;13.60;12.60;;;;;28.49;46.86;99288.19;5064607;28;8876;-78
2022/07/29 06:42:15;;;;;;;;;13.60;13.00;;;;;28.55;46.52;99291.25;5051075;28;8999;-77
2022/07/29 06:44:45;;;;;;;;;13.40;13.40;;;;;28.62;46.53;99290.75;5093140;28;8877;-79
2022/07/29 06:47:13;;;;;;;;;10.20;10.20;;;;;28.75;46.13;99286.13;5106115;28;10132;-78
2022/07/29 06:49:42;;;;;;;;;14.40;12.80;;;;;28.81;46.12;99296.38;5092025;28;9591;-79
2022/07/29 06:52:11;;;;;;;;;13.20;13.20;;;;;28.86;45.89;99290.63;5052388;28;8837;-82
2022/07/29 06:54:46;;;;;;;;;12.00;11.20;;;;;28.88;45.83;99291.34;5087339;28;8870;-80
2022/07/29 06:57:15;;;;;;;;;16.00;15.00;;;;;28.86;45.72;99288.78;5106886;27;8958;-80
2022/07/29 06:59:45;;;;;;;;;14.60;14.60;;;;;28.91;45.49;99291.97;5134195;27;8843;-79
2022/07/29 07:02:13;;;;;;;;;13.20;12.40;;;;;29.04;45.33;99289.16;5154946;27;8847;-78
2022/07/29 07:04:42;;;;;;;;;12.40;12.40;;;;;29.09;45.02;99294.13;5138758;27;8848;-72
2022/07/29 07:07:10;;;;;;;;;13.80;13.80;;;;;29.19;45.16;99289.75;5132469;27;9660;-73
2022/07/29 07:09:39;;;;;;;;;10.40;10.40;;;;;29.38;44.67;99288.22;5132190;27;8865;-72
2022/07/29 07:12:08;;;;;;;;;11.00;10.60;;;;;29.54;44.04;99286.81;5132526;27;8938;-73
2022/07/29 07:14:37;;;;;;;;;15.00;14.00;;;;;29.67;43.57;99285.78;5062767;27;8868;-72
2022/07/29 07:17:07;;;;;;;;;13.60;12.00;;;;;29.91;43.49;99285.59;5131998;27;8842;-75
2022/07/29 07:19:36;;;;;;;;;14.00;13.60;;;;;30.05;43.29;99287.09;5130489;27;8846;-73
2022/07/29 07:22:04;;;;;;;;;13.80;13.80;;;;;30.12;43.15;99289.13;5129869;27;9003;-75
2022/07/29 07:24:33;;;;;;;;;13.20;13.20;;;;;30.17;42.67;99288.72;5129966;27;8960;-73
2022/07/29 07:27:02;;;;;;;;;16.75;16.25;;;;;30.17;42.90;99291.41;5131023;27;8831;-72
2022/07/29 07:29:30;;;;;;;;;14.50;13.25;;;;;30.36;42.75;99292.53;5085976;27;8909;-72
2022/07/29 07:31:59;;;;;;;;;15.40;14.20;;;;;30.52;41.77;99290.22;5125716;27;8953;-74
2022/07/29 07:34:30;;;;;;;;;18.50;17.50;;;;;30.71;41.64;99298.34;5148061;27;8839;-73
2022/07/29 07:36:59;;;;;;;;;13.50;12.50;;;;;30.79;41.43;99299.53;5121363;27;8885;-73
2022/07/29 07:39:27;;;;;;;;;14.75;13.75;;;;;30.96;41.50;99292.66;5152387;27;8870;-74
2022/07/29 07:41:56;;;;;;;;;16.20;15.40;;;;;31.00;40.99;99292.25;5143422;27;8947;-74
2022/07/29 07:44:25;;;;;;;;;15.25;14.25;;;;;30.99;41.28;99290.53;5151032;27;8879;-74
2022/07/29 07:46:53;;;;;;;;;15.40;13.40;;;;;31.12;41.06;99289.47;5151375;27;8853;-74
2022/07/29 07:49:22;;;;;;;;;16.20;15.00;;;;;31.21;40.72;99293.97;5143864;27;8842;-72
2022/07/29 07:51:52;;;;;;;;;12.80;12.80;;;;;31.30;40.01;99287.75;5123939;27;8851;-73
2022/07/29 07:54:21;;;;;;;;;13.00;13.00;;;;;31.38;40.17;99289.75;5136729;27;8848;-74
2022/07/29 07:56:50;;;;;;;;;14.80;13.60;;;;;31.43;39.68;99293.72;5130720;27;8841;-75
2022/07/29 07:59:20;;;;;;;;;16.25;15.75;;;;;31.52;39.61;99289.38;5080169;27;8969;-75
2022/07/29 08:01:49;;;;;;;;;16.50;15.75;;;;;31.59;39.44;99295.91;5149382;27;8851;-76
2022/07/29 08:04:24;;;;;;;;;17.00;16.25;;;;;31.60;39.13;99300.28;5137146;27;8930;-78
2022/07/29 08:06:58;;;;;;;;;18.25;18.25;;;;;31.59;38.84;99298.59;5120178;27;8841;-72
2022/07/29 08:09:28;;;;;;;;;15.80;15.80;;;;;31.54;39.09;99292.78;5092770;27;8855;-76
2022/07/29 08:11:58;;;;;;;;;17.25;16.25;;;;;31.54;39.33;99289.25;5151890;27;9615;-74
2022/07/29 08:14:27;;;;;;;;;18.00;18.00;;;;;31.40;38.77;99296.72;5112101;27;8992;-72
2022/07/29 08:16:56;;;;;;;;;17.75;16.50;;;;;31.39;39.40;99297.69;5131208;27;8861;-73
2022/07/29 08:19:24;;;;;;;;;17.75;17.75;;;;;31.37;39.07;99296.16;5080692;27;8867;-75
2022/07/29 08:21:53;;;;;;;;;21.75;21.25;;;;;31.45;39.13;99291.75;5129180;27;8842;-74
2022/07/29 08:27:10;;;;;;;;;17.50;17.50;;;;;31.42;39.67;99300.13;5105743;27;8847;-73
2022/07/29 08:29:59;;;;;;;;;17.50;17.50;;;;;31.53;39.37;99293.78;5151309;27;8847;-73
2022/07/29 08:32:28;;;;;;;;;17.75;17.50;;;;;31.57;39.41;99295.22;5129058;27;9027;-73
2022/07/29 08:35:17;;;;;;;;;18.75;18.75;;;;;31.66;39.32;99288.97;5112078;27;8934;-75
2022/07/29 08:37:45;;;;;;;;;16.25;16.25;;;;;31.71;39.91;99288.53;5130545;27;8865;-75
2022/07/29 08:40:15;;;;;;;;;17.75;17.25;;;;;31.73;39.51;99293.78;5111692;27;8861;-75
2022/07/29 08:42:44;;;;;;;;;19.25;19.25;;;;;31.80;39.43;99276.03;5131176;27;8861;-73
2022/07/29 08:45:13;;;;;;;;;18.00;17.75;;;;;31.84;39.74;99283.69;5128586;27;8872;-72
2022/07/29 08:47:42;;;;;;;;;17.50;17.50;;;;;31.93;39.15;99289.19;5128967;27;8954;-74
2022/07/29 08:50:11;;;;;;;;;17.75;17.75;;;;;32.02;39.01;99291.06;5134106;27;8849;-73
2022/07/29 08:52:41;;;;;;;;;18.00;18.00;;;;;32.01;38.79;99292.03;5141603;27;8841;-72
2022/07/29 08:55:11;;;;;;;;;18.75;17.75;;;;;32.10;38.81;99291.22;5130331;27;8951;-73
2022/07/29 08:57:41;;;;;;;;;18.75;18.50;;;;;32.15;38.82;99283.50;5133896;27;8876;-73
2022/07/29 09:00:23;;;;;;;;;17.00;16.25;;;;;32.27;38.16;99284.22;5150032;27;8906;-74
2022/07/29 09:02:58;;;;;;;;;16.25;16.25;;;;;32.30;38.44;99285.75;5137858;27;8834;-74
2022/07/29 09:05:27;;;;;;;;;18.50;18.00;;;;;32.41;38.34;99283.72;5078739;27;9726;-79
2022/07/29 09:07:57;;;;;;;;;20.25;19.75;;;;;32.46;37.94;99283.31;5136367;27;8831;-80
2022/07/29 09:10:25;;;;;;;;;15.75;15.50;;;;;32.54;37.77;99280.69;5143430;27;8849;-80
2022/07/29 09:12:56;;;;;;;;;17.50;17.50;;;;;32.54;37.68;99283.41;5118945;27;9823;-79
2022/07/29 09:15:25;;;;;;;;;21.00;20.50;;;;;32.53;37.37;99289.78;5130040;27;8995;-78
2022/07/29 09:17:55;;;;;;;;;18.75;18.75;;;;;32.59;37.45;99282.97;5127990;27;8938;-79
2022/07/29 09:20:23;;;;;;;;;20.50;20.50;;;;;32.52;37.44;99277.28;5142939;27;8874;-80
2022/07/29 09:22:53;;;;;;;;;17.00;16.50;;;;;32.51;36.91;99274.75;5150055;27;9616;-80
2022/07/29 09:25:42;;;;;;;;;17.75;17.75;;;;;32.60;37.22;99282.81;5135363;27;8842;-79
2022/07/29 09:28:14;;;;;;;;;19.00;18.00;;;;;32.68;36.58;99275.84;5050940;28;8874;-77
2022/07/29 09:30:52;;;;;;;;;18.50;18.25;;;;;32.71;37.66;99279.09;5063059;28;8909;-79
2022/07/29 09:33:22;;;;;;;;;18.00;18.00;;;;;32.82;36.74;99278.91;5028903;28;8870;-81
2022/07/29 09:36:00;;;;;;;;;19.00;19.00;;;;;32.90;36.87;99263.78;5064709;28;8851;-79
2022/07/29 09:38:30;;;;;;;;;21.50;19.75;;;;;32.87;36.47;99264.94;5048682;28;9593;-81
2022/07/29 09:40:59;;;;;;;;;16.50;16.50;;;;;32.94;35.77;99266.03;5032034;28;8855;-80
2022/07/29 09:43:35;;;;;;;;;21.00;19.75;;;;;32.24;36.62;99269.16;5045178;28;8920;-80
2022/07/29 09:46:14;;;;;;;;;18.50;17.50;;;;;32.61;36.46;99267.50;5047867;28;8875;-78
2022/07/29 09:48:43;;;;;;;;;18.50;18.50;;;;;32.79;35.77;99272.94;5064487;28;8878;-81
2022/07/29 09:51:21;;;;;;;;;17.25;17.00;;;;;32.88;35.39;99257.69;5045145;28;8986;-79
2022/07/29 09:54:25;;;;;;;;;19.75;19.00;;;;;32.98;36.02;99259.31;5059580;28;9040;-77
2022/07/29 09:56:55;;;;;;;;;20.50;20.50;;;;;33.18;35.29;99253.84;5062233;28;8863;-82
2022/07/29 09:59:26;;;;;;;;;18.00;18.00;;;;;33.34;35.11;99259.38;5064763;28;8929;-78
2022/07/29 10:01:54;;;;;;;;;17.75;17.75;;;;;33.47;34.23;99252.75;5063050;28;8879;-79
2022/07/29 10:04:23;;;;;;;;;20.25;18.25;;;;;33.51;34.07;99252.28;5068087;27;8886;-80
2022/07/29 10:07:00;;;;;;;;;21.00;19.25;;;;;33.66;34.09;99249.91;5108208;27;8866;-78
2022/07/29 10:09:33;;;;;;;;;18.75;18.75;;;;;33.81;33.96;99246.63;5081921;27;8839;-80
2022/07/29 10:12:10;;;;;;;;;20.50;20.25;;;;;33.99;33.41;99242.88;5145907;27;8881;-79
2022/07/29 10:14:41;;;;;;;;;19.00;18.50;;;;;34.11;33.13;99240.75;5135765;27;9652;-79
2022/07/29 10:17:11;;;;;;;;;16.00;16.00;;;;;34.18;33.01;99238.31;5111515;27;9638;-79
2022/07/29 10:19:41;;;;;;;;;16.00;16.00;;;;;34.26;32.45;99232.06;5129445;27;9020;-78
2022/07/29 10:22:11;;;;;;;;;18.50;18.50;;;;;34.38;32.47;99236.19;5075458;27;8964;-79
2022/07/29 10:24:40;;;;;;;;;19.25;19.25;;;;;34.30;33.00;99233.44;5137727;27;8839;-78
2022/07/29 10:27:09;;;;;;;;;19.25;18.25;;;;;34.33;32.69;99223.16;5149746;27;9607;-80
2022/07/29 10:29:39;;;;;;;;;18.00;16.75;;;;;34.40;33.10;99223.34;5142024;27;8976;-79
2022/07/29 10:32:31;;;;;;;;;19.75;19.00;;;;;34.51;33.54;99223.03;5110976;27;8826;-79
2022/07/29 10:35:19;;;;;;;;;21.00;21.00;;;;;34.44;33.66;99223.84;5111031;27;8900;-80
2022/07/29 10:38:17;;;;;;;;;20.25;20.00;;;;;34.63;33.92;99215.47;5112059;27;8865;-78
2022/07/29 10:43:49;;;;;;;;;29.50;27.75;;;;;34.86;32.38;99207.63;5059994;28;8866;-79
2022/07/29 10:46:21;;;;;;;;;21.75;21.75;;;;;34.78;32.46;99214.88;5078140;28;8847;-79
2022/07/29 10:49:09;;;;;;;;;20.25;20.25;;;;;34.80;32.48;99210.97;5100048;28;9115;-80
2022/07/29 10:52:05;;;;;;;;;21.75;20.75;;;;;34.68;33.08;99215.03;5089115;28;8856;-79
2022/07/29 10:54:50;;;;;;;;;24.50;22.25;;;;;34.67;33.30;99205.16;5086059;28;8882;-80
2022/07/29 10:57:25;;;;;;;;;20.50;18.00;;;;;34.68;32.75;99198.78;5070971;28;8870;-79
2022/07/29 11:00:33;;;;;;;;;21.00;21.00;;;;;34.83;32.92;99197.13;5086359;28;8948;-79
2022/07/29 11:03:03;;;;;;;;;22.25;20.50;;;;;34.82;32.27;99198.16;5085515;28;8862;-75
2022/07/29 11:05:56;;;;;;;;;19.75;18.00;;;;;34.70;32.42;99188.63;5067940;28;8868;-75
2022/07/29 11:08:27;;;;;;;;;24.25;21.50;;;;;34.49;33.38;99183.63;5007526;28;9682;-76
2022/07/29 11:11:36;;;;;;;;;22.25;21.25;;;;;34.54;33.40;99184.81;5020305;28;9051;-78
2022/07/29 11:14:05;;;;;;;;;20.00;17.75;;;;;34.51;32.58;99179.72;5044519;28;8889;-77
2022/07/29 11:17:05;;;;;;;;;20.00;20.00;;;;;34.52;33.42;99184.13;5044731;28;8870;-77
2022/07/29 11:19:41;;;;;;;;;22.25;22.00;;;;;34.44;32.84;99177.81;5034546;28;8854;-76
2022/07/29 11:22:33;;;;;;;;;20.50;20.25;;;;;34.42;32.85;99177.16;5083901;28;8866;-77
2022/07/29 11:25:14;;;;;;;;;22.00;22.00;;;;;34.35;33.40;99175.09;5080033;28;9649;-80
2022/07/29 11:27:45;;;;;;;;;22.50;22.50;;;;;34.24;33.59;99182.66;5070526;28;8879;-78
2022/07/29 11:30:15;;;;;;;;;17.75;17.00;;;;;34.44;32.70;99169.69;5067618;28;8872;-79
2022/07/29 11:32:46;;;;;;;;;22.50;21.50;;;;;34.62;33.01;99166.91;5067821;28;8877;-78
2022/07/29 11:35:20;;;;;;;;;21.75;21.00;;;;;34.82;32.35;99156.63;5084351;28;9456;-76
2022/07/29 11:38:27;;;;;;;;;20.75;20.75;;;;;35.10;31.62;99166.16;5067475;28;9109;-77
2022/07/29 11:41:24;;;;;;;;;21.25;21.25;;;;;35.39;31.44;99167.56;5024157;28;10196;-75
2022/07/29 11:44:12;;;;;;;;;22.75;21.50;;;;;35.52;30.87;99167.03;4998073;28;8856;-75
2022/07/29 11:46:47;;;;;;;;;22.25;22.25;;;;;35.61;30.72;99163.28;5077827;28;8875;-73
2022/07/29 11:49:20;;;;;;;;;20.75;20.00;;;;;35.58;31.04;99162.78;5101813;28;8861;-74
2022/07/29 11:52:02;;;;;;;;;24.00;23.25;;;;;35.53;31.25;99161.44;5082320;28;8861;-75
2022/07/29 11:54:32;;;;;;;;;22.75;22.00;;;;;35.58;30.66;99160.06;5097237;28;8863;-73
2022/07/29 11:57:21;;;;;;;;;24.75;23.75;;;;;35.75;30.99;99158.22;5088625;28;8846;-73
2022/07/29 12:00:06;;;;;;;;;20.25;20.25;;;;;35.84;31.18;99159.88;5068123;28;8844;-73
2022/07/29 12:02:41;;;;;;;;;21.25;21.25;;;;;35.71;30.68;99158.56;5085191;28;8942;-76